CheckWX is a tool to help pilots better visualize weather data.  It is not intended as a substitute for an official pre-flight weather briefing.

06:39:57 UTC

OMFJ TAF
Fujairah International Airport
United Arab Emirates
TAF OMFJ 230500Z 2306/2412 09008KT 8000 NSC BECMG 2314/2316 VRB03KT TEMPO 2322/2403 5000 HZ FEW020 BECMG 2400/2402 29005KT BECMG 2406/2408 10007KT

Feb-23@
06:00 UTC

Feb-23 @ 06:00 UTC

Feb-23@
14:00 UTC

Feb-23 @ 14:00 UTC

TAF OMFJ 230500Z 2306/2412 09008KT 8000 NSC
Wind
  • 090° at 8 KTS
Cloud Levels
  • No significant clouds

Feb-23@
14:00 UTC

Feb-23 @ 14:00 UTC

Feb-24@
00:00 UTC

Feb-24 @ 00:00 UTC

BECMG 2314/2316 VRB03KT

Becoming

Becoming Conditions expected by Sun, Feb 23, 2020 @ 16:00 UTC

Wind
  • Variable at 3 KTS
Cloud Levels
  • No significant clouds

Feb-23@
22:00 UTC

Feb-23 @ 22:00 UTC

Feb-24@
03:00 UTC

Feb-24 @ 03:00 UTC

TEMPO 2322/2403 5000 HZ FEW020

Temporary

Temporary Changes expected for less than half the time period

Conditions
Haze
Cloud Levels
  • Few at 2,000' AGL

Feb-24@
00:00 UTC

Feb-24 @ 00:00 UTC

Feb-24@
06:00 UTC

Feb-24 @ 06:00 UTC

BECMG 2400/2402 29005KT

Becoming

Becoming Conditions expected by Mon, Feb 24, 2020 @ 02:00 UTC

Wind
  • 290° at 5 KTS
Cloud Levels
  • No significant clouds

Feb-24@
06:00 UTC

Feb-24 @ 06:00 UTC

Feb-24@
12:00 UTC

Feb-24 @ 12:00 UTC

BECMG 2406/2408 10007KT

Becoming

Becoming Conditions expected by Mon, Feb 24, 2020 @ 08:00 UTC

Wind
  • 100° at 7 KTS
Cloud Levels
  • No significant clouds